Valle Di Nervion — IBPC — position and weather

sailwx.info

Track history (hours):
 
Tides and Currents Weather Stations Pressure Air Temp Water Temp Dewpoint Dewpoint Depression Visibility Wind Speed Wind Dir Waves Ship Positions

Valle Di Nervion

Last reported at 2015-May-22 23:06 UTC. Time now 2015-May-23 04:20 UTC.
Position N 39°26' E 009°48'.

Length 176 m; draft 9.6 m.

Type: Ship (hazmat cat A). MMSI: 247109500.

Date/timePositionNaut miles runAvg speedWind from/ knotsBaromVisibWave heightAir tempDewpointWater temp
2015-May-22 23:06N 39°26' E 009°48'712.6
2015-May-22 22:32N 39°19' E 009°46'1312.8
2015-May-22 21:32N 39°06' E 009°41'1110.9
2015-May-22 20:33N 39°02' E 009°29'1313.3
2015-May-22 19:33N 39°08' E 009°14'3 3.2
2015-May-22 18:33N 39°06' E 009°17'1413.6
2015-May-22 17:33N 39°01' E 009°34'4 4.1
2015-May-22 16:33N 38°60' E 009°29'1312.7
2015-May-22 15:34N 39°04' E 009°14'9 9.0
2015-May-22 14:33N 39°06' E 009°02'0 0.4
2015-May-22 13:31N 39°05' E 009°02'0 0.0
2015-May-22 12:31N 39°05' E 009°02'0 0.0
2015-May-22 11:31N 39°05' E 009°02'0 0.0
2015-May-22 10:31N 39°05' E 009°02'0 0.0
2015-May-22 09:31N 39°05' E 009°02'0 0.0
2015-May-22 08:31N 39°05' E 009°02'0 0.0
2015-May-22 07:31N 39°05' E 009°02'0 0.0
2015-May-22 06:34N 39°05' E 009°02'0 0.0
2015-May-22 05:33N 39°05' E 009°02'0 0.0
2015-May-22 04:33N 39°05' E 009°02'0 0.0
2015-May-22 03:33N 39°05' E 009°02'0 0.0
2015-May-22 02:33N 39°05' E 009°02'0 0.0
2015-May-22 01:33N 39°05' E 009°02'0 0.0
2015-May-22 00:33N 39°05' E 009°02'0 0.0
2015-May-21 23:33N 39°05' E 009°02'0 0.0
2015-May-21 22:33N 39°05' E 009°02'0 0.0
2015-May-21 21:33N 39°05' E 009°02'0 0.0
2015-May-21 20:33N 39°05' E 009°02'0 0.0
2015-May-21 19:33N 39°05' E 009°02'0 0.0
2015-May-21 18:33N 39°05' E 009°02'0 0.0
2015-May-21 17:33N 39°05' E 009°02'0 0.0
2015-May-21 16:33N 39°05' E 009°02'0 0.0
2015-May-21 15:33N 39°05' E 009°02'0 0.0
2015-May-21 14:33N 39°05' E 009°02'0 0.0
2015-May-21 13:33N 39°05' E 009°02'0 0.0
2015-May-21 12:33N 39°05' E 009°02'0 0.0
2015-May-21 11:33N 39°05' E 009°02'0 0.0
2015-May-21 10:33N 39°05' E 009°02'0 0.0
2015-May-21 09:33N 39°05' E 009°02'0 0.0
2015-May-21 08:33N 39°05' E 009°02'0 0.0
2015-May-21 07:33N 39°05' E 009°02'0 0.0
2015-May-21 06:33N 39°05' E 009°02'0 0.0
2015-May-21 05:33N 39°05' E 009°02'0 0.0
2015-May-21 04:33N 39°05' E 009°02'1 1.4
2015-May-21 03:34N 39°04' E 009°03'0 0.0
2015-May-21 02:34N 39°04' E 009°03'0 0.0
2015-May-21 01:33N 39°04' E 009°03'0 0.0
2015-May-21 00:33N 39°04' E 009°03'0 0.0
2015-May-20 23:33N 39°04' E 009°03'0 0.0
2015-May-20 22:33N 39°04' E 009°03'0 0.0
2015-May-20 21:33N 39°04' E 009°03'0 0.0
2015-May-20 20:33N 39°04' E 009°03'0 0.0
2015-May-20 19:33N 39°04' E 009°03'0 0.0
2015-May-20 18:33N 39°04' E 009°03'0 0.0
2015-May-20 17:33N 39°04' E 009°03'0 0.0
2015-May-20 16:33N 39°04' E 009°03'0 0.0
2015-May-20 15:33N 39°04' E 009°03'0 0.0
2015-May-20 14:33N 39°04' E 009°03'0 0.0
2015-May-20 13:33N 39°04' E 009°03'0 0.0
2015-May-20 12:33N 39°04' E 009°03'0 0.0
2015-May-20 11:33N 39°04' E 009°03'0 0.0
2015-May-20 10:33N 39°04' E 009°03'0 0.1
2015-May-20 09:33N 39°04' E 009°03'4 3.5
2015-May-20 08:33N 39°02' E 009°07'1211.7
2015-May-20 07:32N 38°51' E 008°60'1312.6
2015-May-20 06:33N 38°43' E 008°48'1313.3
2015-May-20 05:32N 38°43' E 008°31'1413.0
2015-May-20 04:28N 38°44' E 008°13'  
2015-May-17 15:04N 39°33' E 002°38'0 0.0
2015-May-17 14:31N 39°33' E 002°38'0 0.0
2015-May-17 13:31N 39°33' E 002°38'0 0.0
2015-May-17 12:31N 39°33' E 002°38'0 0.0
2015-May-17 11:31N 39°33' E 002°38'0 0.0
2015-May-17 10:31N 39°33' E 002°38'0 0.0
2015-May-17 09:31N 39°33' E 002°38'0 0.0
2015-May-17 08:31N 39°33' E 002°38'0 0.0
2015-May-17 07:31N 39°33' E 002°38'0 0.0
2015-May-17 06:31N 39°33' E 002°38'0 0.0
2015-May-17 05:31N 39°33' E 002°38'0 0.0
2015-May-17 04:31N 39°33' E 002°38'0 0.0
2015-May-17 03:34N 39°33' E 002°38'0 0.0
2015-May-17 02:33N 39°33' E 002°38'0 0.0
2015-May-17 01:33N 39°33' E 002°38'0 0.0
2015-May-17 00:33N 39°33' E 002°38'1 0.9
2015-May-16 23:34N 39°33' E 002°39'1 1.2
2015-May-16 22:33N 39°32' E 002°40'0 0.0
2015-May-16 20:33N 39°32' E 002°40'0 0.0
2015-May-16 19:33N 39°32' E 002°40'0 0.2
2015-May-16 18:33N 39°32' E 002°40'0 0.0
2015-May-16 17:27N 39°32' E 002°40'0 0.0
2015-May-16 16:30N 39°32' E 002°40'0 0.1
2015-May-16 15:33N 39°32' E 002°40'0 0.1
2015-May-16 14:33N 39°32' E 002°40'0 0.0
2015-May-16 13:33N 39°32' E 002°40'0 0.0
2015-May-15 08:32N 39°32' E 002°40'0 0.1
2015-May-15 07:32N 39°32' E 002°40'0 0.0
2015-May-15 06:32N 39°32' E 002°40'0 0.0
2015-May-15 05:32N 39°32' E 002°40'0 0.0
2015-May-15 03:32N 39°32' E 002°40'0 0.0
2015-May-15 02:32N 39°32' E 002°40'0 0.0
2015-May-15 01:31N 39°32' E 002°40'0 0.0
2015-May-15 00:28N 39°32' E 002°40'0 0.0
2015-May-14 23:31N 39°32' E 002°40'0 0.0
2015-May-14 22:31N 39°32' E 002°40'2 2.2
2015-May-14 21:33N 39°30' E 002°39'1010.1
2015-May-14 20:33N 39°20' E 002°39'1211.8
2015-May-14 19:33N 39°09' E 002°46'1312.6
2015-May-14 18:33N 39°03' E 002°60'1313.1
2015-May-14 17:33N 38°60' E 003°16'1312.8
2015-May-14 16:33N 38°57' E 003°32'1312.7
2015-May-14 15:33N 38°56' E 003°49'1312.8
2015-May-14 14:33N 38°56' E 004°05'1412.9
2015-May-14 13:27N 38°55' E 004°23'2412.6
2015-May-14 11:33N 38°53' E 004°54'1212.1
2015-May-14 10:33N 38°53' E 005°09'2811.9
2015-May-14 08:12N 38°51' E 005°46'13312.0
2015-May-13 21:10N 38°44' E 008°35'711.6
2015-May-13 20:33N 38°44' E 008°45'1510.8
2015-May-13 19:10N 38°52' E 009°01'711.8
2015-May-13 18:33N 38°58' E 009°06'8 7.7
2015-May-13 17:32N 39°05' E 009°02'0 0.0
2015-May-13 16:32N 39°05' E 009°02'0 0.0
2015-May-13 15:32N 39°05' E 009°02'0 0.0
2015-May-13 14:28N 39°05' E 009°02'0 0.0
2015-May-13 13:31N 39°05' E 009°02'0 0.0
2015-May-13 12:31N 39°05' E 009°02'0 0.0
2015-May-13 11:31N 39°05' E 009°02'0 0.0
2015-May-13 10:31N 39°05' E 009°02'0 0.0
2015-May-13 09:31N 39°05' E 009°02'0 0.0
2015-May-13 08:31N 39°05' E 009°02'0 0.0
2015-May-13 07:31N 39°05' E 009°02'0 0.0
2015-May-13 06:31N 39°05' E 009°02'0 0.0
2015-May-13 05:31N 39°05' E 009°02'0 0.0
2015-May-13 04:31N 39°05' E 009°02'0 0.0
2015-May-13 03:31N 39°05' E 009°02'0 0.0
2015-May-13 02:31N 39°05' E 009°02'0 0.0
2015-May-13 01:31N 39°05' E 009°02'0 0.0
2015-May-13 00:31N 39°05' E 009°02'0 0.0
2015-May-12 23:31N 39°05' E 009°02'  
Track history (hours):
 
Tides and Currents Weather Stations Pressure Air Temp Water Temp Dewpoint Dewpoint Depression Visibility Wind Speed Wind Dir Waves Ship Positions

Valle Di Nervion

Last reported at 2015-May-22 23:06 UTC. Time now 2015-May-23 04:20 UTC.
Position N 39°26' E 009°48'.

Length 176 m; draft 9.6 m.

Type: Ship (hazmat cat A). MMSI: 247109500.

Date/timePositionNaut miles runAvg speedWind from/ knotsBaromVisibWave heightAir tempDewpointWater temp
2015-May-22 23:06N 39°26' E 009°48'712.6
2015-May-22 22:32N 39°19' E 009°46'1312.8
2015-May-22 21:32N 39°06' E 009°41'1110.9
2015-May-22 20:33N 39°02' E 009°29'1313.3
2015-May-22 19:33N 39°08' E 009°14'3 3.2
2015-May-22 18:33N 39°06' E 009°17'1413.6
2015-May-22 17:33N 39°01' E 009°34'4 4.1
2015-May-22 16:33N 38°60' E 009°29'1312.7
2015-May-22 15:34N 39°04' E 009°14'9 9.0
2015-May-22 14:33N 39°06' E 009°02'0 0.4
2015-May-22 13:31N 39°05' E 009°02'0 0.0
2015-May-22 12:31N 39°05' E 009°02'0 0.0
2015-May-22 11:31N 39°05' E 009°02'0 0.0
2015-May-22 10:31N 39°05' E 009°02'0 0.0
2015-May-22 09:31N 39°05' E 009°02'0 0.0
2015-May-22 08:31N 39°05' E 009°02'0 0.0
2015-May-22 07:31N 39°05' E 009°02'0 0.0
2015-May-22 06:34N 39°05' E 009°02'0 0.0
2015-May-22 05:33N 39°05' E 009°02'0 0.0
2015-May-22 04:33N 39°05' E 009°02'0 0.0
2015-May-22 03:33N 39°05' E 009°02'0 0.0
2015-May-22 02:33N 39°05' E 009°02'0 0.0
2015-May-22 01:33N 39°05' E 009°02'0 0.0
2015-May-22 00:33N 39°05' E 009°02'0 0.0
2015-May-21 23:33N 39°05' E 009°02'0 0.0
2015-May-21 22:33N 39°05' E 009°02'0 0.0
2015-May-21 21:33N 39°05' E 009°02'0 0.0
2015-May-21 20:33N 39°05' E 009°02'0 0.0
2015-May-21 19:33N 39°05' E 009°02'0 0.0
2015-May-21 18:33N 39°05' E 009°02'0 0.0
2015-May-21 17:33N 39°05' E 009°02'0 0.0
2015-May-21 16:33N 39°05' E 009°02'0 0.0
2015-May-21 15:33N 39°05' E 009°02'0 0.0
2015-May-21 14:33N 39°05' E 009°02'0 0.0
2015-May-21 13:33N 39°05' E 009°02'0 0.0
2015-May-21 12:33N 39°05' E 009°02'0 0.0
2015-May-21 11:33N 39°05' E 009°02'0 0.0
2015-May-21 10:33N 39°05' E 009°02'0 0.0
2015-May-21 09:33N 39°05' E 009°02'0 0.0
2015-May-21 08:33N 39°05' E 009°02'0 0.0
2015-May-21 07:33N 39°05' E 009°02'0 0.0
2015-May-21 06:33N 39°05' E 009°02'0 0.0
2015-May-21 05:33N 39°05' E 009°02'0 0.0
2015-May-21 04:33N 39°05' E 009°02'1 1.4
2015-May-21 03:34N 39°04' E 009°03'0 0.0
2015-May-21 02:34N 39°04' E 009°03'0 0.0
2015-May-21 01:33N 39°04' E 009°03'0 0.0
2015-May-21 00:33N 39°04' E 009°03'0 0.0
2015-May-20 23:33N 39°04' E 009°03'0 0.0
2015-May-20 22:33N 39°04' E 009°03'0 0.0
2015-May-20 21:33N 39°04' E 009°03'0 0.0
2015-May-20 20:33N 39°04' E 009°03'0 0.0
2015-May-20 19:33N 39°04' E 009°03'0 0.0
2015-May-20 18:33N 39°04' E 009°03'0 0.0
2015-May-20 17:33N 39°04' E 009°03'0 0.0
2015-May-20 16:33N 39°04' E 009°03'0 0.0
2015-May-20 15:33N 39°04' E 009°03'0 0.0
2015-May-20 14:33N 39°04' E 009°03'0 0.0
2015-May-20 13:33N 39°04' E 009°03'0 0.0
2015-May-20 12:33N 39°04' E 009°03'0 0.0
2015-May-20 11:33N 39°04' E 009°03'0 0.0
2015-May-20 10:33N 39°04' E 009°03'0 0.1
2015-May-20 09:33N 39°04' E 009°03'4 3.5
2015-May-20 08:33N 39°02' E 009°07'1211.7
2015-May-20 07:32N 38°51' E 008°60'1312.6
2015-May-20 06:33N 38°43' E 008°48'1313.3
2015-May-20 05:32N 38°43' E 008°31'1413.0
2015-May-20 04:28N 38°44' E 008°13'  
2015-May-17 15:04N 39°33' E 002°38'0 0.0
2015-May-17 14:31N 39°33' E 002°38'0 0.0
2015-May-17 13:31N 39°33' E 002°38'0 0.0
2015-May-17 12:31N 39°33' E 002°38'0 0.0
2015-May-17 11:31N 39°33' E 002°38'0 0.0
2015-May-17 10:31N 39°33' E 002°38'0 0.0
2015-May-17 09:31N 39°33' E 002°38'0 0.0
2015-May-17 08:31N 39°33' E 002°38'0 0.0
2015-May-17 07:31N 39°33' E 002°38'0 0.0
2015-May-17 06:31N 39°33' E 002°38'0 0.0
2015-May-17 05:31N 39°33' E 002°38'0 0.0
2015-May-17 04:31N 39°33' E 002°38'0 0.0
2015-May-17 03:34N 39°33' E 002°38'0 0.0
2015-May-17 02:33N 39°33' E 002°38'0 0.0
2015-May-17 01:33N 39°33' E 002°38'0 0.0
2015-May-17 00:33N 39°33' E 002°38'1 0.9
2015-May-16 23:34N 39°33' E 002°39'1 1.2
2015-May-16 22:33N 39°32' E 002°40'0 0.0
2015-May-16 20:33N 39°32' E 002°40'0 0.0
2015-May-16 19:33N 39°32' E 002°40'0 0.2
2015-May-16 18:33N 39°32' E 002°40'0 0.0
2015-May-16 17:27N 39°32' E 002°40'0 0.0
2015-May-16 16:30N 39°32' E 002°40'0 0.1
2015-May-16 15:33N 39°32' E 002°40'0 0.1
2015-May-16 14:33N 39°32' E 002°40'0 0.0
2015-May-16 13:33N 39°32' E 002°40'0 0.0
2015-May-15 08:32N 39°32' E 002°40'0 0.1
2015-May-15 07:32N 39°32' E 002°40'0 0.0
2015-May-15 06:32N 39°32' E 002°40'0 0.0
2015-May-15 05:32N 39°32' E 002°40'0 0.0
2015-May-15 03:32N 39°32' E 002°40'0 0.0
2015-May-15 02:32N 39°32' E 002°40'0 0.0
2015-May-15 01:31N 39°32' E 002°40'0 0.0
2015-May-15 00:28N 39°32' E 002°40'0 0.0
2015-May-14 23:31N 39°32' E 002°40'0 0.0
2015-May-14 22:31N 39°32' E 002°40'2 2.2
2015-May-14 21:33N 39°30' E 002°39'1010.1
2015-May-14 20:33N 39°20' E 002°39'1211.8
2015-May-14 19:33N 39°09' E 002°46'1312.6
2015-May-14 18:33N 39°03' E 002°60'1313.1
2015-May-14 17:33N 38°60' E 003°16'1312.8
2015-May-14 16:33N 38°57' E 003°32'1312.7
2015-May-14 15:33N 38°56' E 003°49'1312.8
2015-May-14 14:33N 38°56' E 004°05'1412.9
2015-May-14 13:27N 38°55' E 004°23'2412.6
2015-May-14 11:33N 38°53' E 004°54'1212.1
2015-May-14 10:33N 38°53' E 005°09'2811.9
2015-May-14 08:12N 38°51' E 005°46'13312.0
2015-May-13 21:10N 38°44' E 008°35'711.6
2015-May-13 20:33N 38°44' E 008°45'1510.8
2015-May-13 19:10N 38°52' E 009°01'711.8
2015-May-13 18:33N 38°58' E 009°06'8 7.7
2015-May-13 17:32N 39°05' E 009°02'0 0.0
2015-May-13 16:32N 39°05' E 009°02'0 0.0
2015-May-13 15:32N 39°05' E 009°02'0 0.0
2015-May-13 14:28N 39°05' E 009°02'0 0.0
2015-May-13 13:31N 39°05' E 009°02'0 0.0
2015-May-13 12:31N 39°05' E 009°02'0 0.0
2015-May-13 11:31N 39°05' E 009°02'0 0.0
2015-May-13 10:31N 39°05' E 009°02'0 0.0
2015-May-13 09:31N 39°05' E 009°02'0 0.0
2015-May-13 08:31N 39°05' E 009°02'0 0.0
2015-May-13 07:31N 39°05' E 009°02'0 0.0
2015-May-13 06:31N 39°05' E 009°02'0 0.0
2015-May-13 05:31N 39°05' E 009°02'0 0.0
2015-May-13 04:31N 39°05' E 009°02'0 0.0
2015-May-13 03:31N 39°05' E 009°02'0 0.0
2015-May-13 02:31N 39°05' E 009°02'0 0.0
2015-May-13 01:31N 39°05' E 009°02'0 0.0
2015-May-13 00:31N 39°05' E 009°02'0 0.0
2015-May-12 23:31N 39°05' E 009°02'  

Dump ship's entire track history